createdAt,value
2023-05-22T00:01:33.615Z,99498.84
2023-05-22T00:04:02.922Z,99501.78
2023-05-22T00:06:30.249Z,99504.25
2023-05-22T00:08:57.689Z,99508.00
2023-05-22T00:26:40.044Z,99492.41
2023-05-22T00:29:07.106Z,99499.38
2023-05-22T00:31:34.336Z,99497.47
2023-05-22T00:49:47.799Z,99498.72
2023-05-22T00:53:57.086Z,99498.09
2023-05-22T00:56:29.066Z,99502.38
2023-05-22T00:58:56.513Z,99486.50
2023-05-22T01:01:26.601Z,99501.75
2023-05-22T01:03:54.211Z,99497.13
2023-05-22T01:06:21.569Z,99494.59
2023-05-22T01:08:48.613Z,99497.22
2023-05-22T01:11:42.026Z,99493.66
2023-05-22T01:14:48.874Z,99489.53
2023-05-22T01:17:40.791Z,99487.81
2023-05-22T01:20:35.056Z,99487.16
2023-05-22T01:23:49.581Z,99482.78
2023-05-22T01:26:54.511Z,99482.13
2023-05-22T01:29:52.135Z,99479.88
2023-05-22T01:32:23.105Z,99479.22
2023-05-22T01:34:58.204Z,99484.53
2023-05-22T01:37:27.300Z,99482.13
2023-05-22T01:39:56.172Z,99478.78
2023-05-22T01:42:24.151Z,99479.75
2023-05-22T01:44:51.508Z,99480.16
2023-05-22T01:47:18.498Z,99479.81
2023-05-22T01:49:47.347Z,99474.84
2023-05-22T01:52:36.239Z,99472.22
2023-05-22T01:55:20.313Z,99478.72
2023-05-22T01:58:17.664Z,99476.38
2023-05-22T02:00:47.449Z,99471.75
2023-05-22T02:03:21.952Z,99482.50
2023-05-22T02:05:58.296Z,99482.88
2023-05-22T02:08:27.739Z,99486.75
2023-05-22T02:10:56.989Z,99483.56
2023-05-22T02:13:24.383Z,99485.09
2023-05-22T02:15:52.583Z,99486.06
2023-05-22T02:18:19.831Z,99482.28
2023-05-22T02:20:47.214Z,99477.44
2023-05-22T02:23:14.469Z,99482.09
2023-05-22T02:25:41.763Z,99485.19
2023-05-22T02:28:08.818Z,99484.50
2023-05-22T02:30:36.038Z,99492.44
2023-05-22T02:33:06.826Z,99481.72
2023-05-22T02:35:34.106Z,99484.88
2023-05-22T02:38:04.587Z,99487.28
2023-05-22T02:40:31.949Z,99482.41
2023-05-22T02:42:59.196Z,99482.41
2023-05-22T02:45:28.710Z,99477.88
2023-05-22T02:47:56.242Z,99487.44
2023-05-22T02:50:23.570Z,99482.88
2023-05-22T02:52:50.519Z,99485.44
2023-05-22T02:55:17.747Z,99478.56
2023-05-22T02:57:44.756Z,99479.13
2023-05-22T03:00:12.503Z,99477.75
2023-05-22T03:02:39.602Z,99489.28
2023-05-22T03:05:08.116Z,99486.63
2023-05-22T03:07:35.165Z,99486.75
2023-05-22T03:10:02.456Z,99489.19
2023-05-22T03:12:29.532Z,99485.13
2023-05-22T03:14:56.851Z,99491.53
2023-05-22T03:17:24.056Z,99487.31
2023-05-22T03:19:51.374Z,99488.50
2023-05-22T03:22:18.697Z,99490.09
2023-05-22T03:24:45.989Z,99499.91
2023-05-22T03:27:17.071Z,99492.91
2023-05-22T03:29:46.598Z,99501.06
2023-05-22T03:32:13.665Z,99500.59
2023-05-22T03:34:41.342Z,99500.13
2023-05-22T03:37:10.672Z,99502.34
2023-05-22T03:39:39.539Z,99501.28
2023-05-22T03:42:20.275Z,99498.03
2023-05-22T03:45:07.982Z,99493.38
2023-05-22T03:47:35.407Z,99492.22
2023-05-22T03:50:03.497Z,99500.97
2023-05-22T03:52:30.704Z,99495.91
2023-05-22T03:54:57.995Z,99499.66
2023-05-22T03:57:26.449Z,99492.44
2023-05-22T04:00:02.867Z,99492.16
2023-05-22T04:02:44.914Z,99495.16
2023-05-22T04:06:31.875Z,99493.13
2023-05-22T04:09:56.797Z,99483.53
2023-05-22T04:12:25.575Z,99484.38
2023-05-22T04:14:52.910Z,99488.28
2023-05-22T04:17:19.903Z,99493.91
2023-05-22T04:19:47.153Z,99483.44
2023-05-22T04:22:14.475Z,99488.50
2023-05-22T04:24:41.708Z,99486.03
2023-05-22T04:27:10.946Z,99483.06
2023-05-22T04:29:38.240Z,99487.09
2023-05-22T04:32:06.293Z,99479.19
2023-05-22T04:34:37.436Z,99475.63
2023-05-22T04:37:06.191Z,99473.22
2023-05-22T04:39:34.290Z,99470.66
2023-05-22T04:42:05.885Z,99465.47
2023-05-22T04:44:34.625Z,99467.28
2023-05-22T04:47:06.847Z,99466.59
2023-05-22T04:49:35.580Z,99462.66
2023-05-22T04:52:04.759Z,99462.50
2023-05-22T04:54:32.545Z,99466.94
2023-05-22T04:57:03.590Z,99466.25
2023-05-22T04:59:41.308Z,99460.41
2023-05-22T05:02:09.376Z,99452.41
2023-05-22T05:04:37.216Z,99461.94
2023-05-22T05:07:06.105Z,99456.31
2023-05-22T05:09:33.966Z,99453.34
2023-05-22T05:12:03.158Z,99455.50
2023-05-22T05:14:30.509Z,99453.91
2023-05-22T05:16:58.698Z,99457.41
2023-05-22T05:19:26.085Z,99460.94
2023-05-22T05:21:53.254Z,99459.28
2023-05-22T05:24:21.982Z,99455.47
2023-05-22T05:26:51.050Z,99459.44
2023-05-22T05:29:20.064Z,99461.53
2023-05-22T05:32:07.701Z,99453.91
2023-05-22T05:34:51.495Z,99463.59
2023-05-22T05:37:26.218Z,99452.91
2023-05-22T05:39:56.582Z,99453.84
2023-05-22T05:42:23.886Z,99450.97
2023-05-22T05:44:53.158Z,99446.75
2023-05-22T05:47:24.100Z,99449.28
2023-05-22T05:49:51.831Z,99444.59
2023-05-22T05:52:19.507Z,99441.38
2023-05-22T05:54:48.235Z,99452.03
2023-05-22T05:57:19.983Z,99442.75
2023-05-22T05:59:47.462Z,99443.91
2023-05-22T06:02:34.252Z,99443.03
2023-05-22T06:05:05.003Z,99443.94
2023-05-22T06:07:38.039Z,99440.47
2023-05-22T06:10:13.036Z,99438.03
2023-05-22T06:23:28.243Z,99440.59
2023-05-22T06:25:57.352Z,99428.28
2023-05-22T06:28:25.773Z,99428.88
2023-05-22T06:30:53.382Z,99422.44
2023-05-22T06:33:23.219Z,99427.53
2023-05-22T06:35:51.068Z,99424.94
2023-05-22T06:38:18.707Z,99425.97
2023-05-22T06:40:46.112Z,99415.75
2023-05-22T06:43:18.564Z,99419.69
2023-05-22T06:46:08.074Z,99421.66
2023-05-22T06:48:50.055Z,99419.50
2023-05-22T06:51:32.769Z,99414.38
2023-05-22T06:54:07.090Z,99419.00
2023-05-22T06:56:36.816Z,99418.19
2023-05-22T06:59:07.273Z,99422.28
2023-05-22T07:01:53.297Z,99417.41
2023-05-22T07:04:33.214Z,99415.53
2023-05-22T07:07:29.018Z,99413.91
2023-05-22T07:09:57.024Z,99411.34
2023-05-22T07:12:26.833Z,99411.81
2023-05-22T07:30:19.921Z,99388.13
2023-05-22T07:38:12.607Z,99386.00
2023-05-22T07:40:47.119Z,99385.84
2023-05-22T07:43:15.380Z,99386.56
2023-05-22T07:45:44.180Z,99378.72
2023-05-22T07:48:14.705Z,99380.91
2023-05-22T07:50:45.322Z,99379.94
2023-05-22T07:53:12.415Z,99386.94
2023-05-22T07:55:42.577Z,99375.13
2023-05-22T07:58:10.781Z,99378.00
2023-05-22T08:00:41.836Z,99378.38
2023-05-22T08:03:09.380Z,99388.72
2023-05-22T08:05:36.766Z,99375.25
2023-05-22T08:08:04.742Z,99372.31
2023-05-22T08:10:46.372Z,99375.31
2023-05-22T08:13:19.558Z,99374.13
2023-05-22T08:15:46.967Z,99379.66
2023-05-22T08:18:14.473Z,99368.88
2023-05-22T08:20:41.882Z,99379.50
2023-05-22T08:23:09.185Z,99373.06
2023-05-22T08:25:36.871Z,99372.63
2023-05-22T08:28:04.295Z,99374.34
2023-05-22T08:30:31.567Z,99373.78
2023-05-22T08:32:58.664Z,99377.78
2023-05-22T08:35:26.092Z,99383.84
2023-05-22T08:37:53.125Z,99382.47
2023-05-22T08:40:20.688Z,99376.28
2023-05-22T08:42:48.280Z,99371.22
2023-05-22T08:45:16.214Z,99371.22
2023-05-22T08:47:51.814Z,99377.66
2023-05-22T08:50:20.115Z,99363.66
2023-05-22T08:52:52.235Z,99363.91
2023-05-22T08:55:20.125Z,99361.13
2023-05-22T08:57:47.769Z,99359.56
2023-05-22T09:00:16.923Z,99357.47
2023-05-22T09:02:45.235Z,99357.50
2023-05-22T09:05:12.713Z,99357.72
2023-05-22T09:07:40.728Z,99360.81
2023-05-22T09:10:08.623Z,99343.66
2023-05-22T09:12:35.830Z,99341.19
2023-05-22T09:15:11.529Z,99344.63
2023-05-22T09:17:41.422Z,99336.56
2023-05-22T09:20:15.646Z,99341.16
2023-05-22T09:22:42.844Z,99341.88
2023-05-22T09:25:18.685Z,99334.72
2023-05-22T09:27:47.600Z,99323.66
2023-05-22T09:30:19.620Z,99331.09
2023-05-22T09:32:48.729Z,99325.47
2023-05-22T09:35:18.416Z,99332.03
2023-05-22T09:37:45.887Z,99328.03
2023-05-22T09:40:14.223Z,99313.78
2023-05-22T09:42:47.142Z,99319.06
2023-05-22T09:45:14.545Z,99331.22
2023-05-22T09:47:41.631Z,99324.56
2023-05-22T09:50:10.790Z,99327.00
2023-05-22T09:52:38.273Z,99323.06
2023-05-22T09:55:08.810Z,99324.28
2023-05-22T09:57:45.115Z,99309.25
2023-05-22T10:00:19.327Z,99311.97
2023-05-22T10:02:53.226Z,99308.44
2023-05-22T10:05:29.966Z,99306.22
2023-05-22T10:08:08.933Z,99303.56
2023-05-22T10:10:38.636Z,99310.84
2023-05-22T10:13:06.631Z,99311.53
2023-05-22T10:15:35.924Z,99314.75
2023-05-22T10:18:04.380Z,99323.16
2023-05-22T10:20:31.935Z,99314.84
2023-05-22T10:23:02.635Z,99314.47
2023-05-22T10:25:30.583Z,99322.66
2023-05-22T10:27:59.399Z,99311.34
2023-05-22T10:30:40.726Z,99307.19
2023-05-22T10:33:48.418Z,99299.56
2023-05-22T10:37:13.145Z,99300.63
2023-05-22T10:40:04.862Z,99285.25
2023-05-22T10:42:32.817Z,99296.31
2023-05-22T10:45:07.258Z,99291.13
2023-05-22T10:47:34.987Z,99293.09
2023-05-22T10:50:07.598Z,99293.63
2023-05-22T10:52:36.904Z,99290.53
2023-05-22T10:55:11.263Z,99295.53
2023-05-22T10:57:39.961Z,99300.00
2023-05-22T11:00:10.582Z,99292.00
2023-05-22T11:02:44.811Z,99287.44
2023-05-22T11:05:21.497Z,99285.81
2023-05-22T11:07:49.729Z,99289.72
2023-05-22T11:10:27.433Z,99278.28
2023-05-22T11:13:12.352Z,99264.06
2023-05-22T11:15:45.902Z,99267.28
2023-05-22T11:18:15.201Z,99265.97
2023-05-22T11:20:43.338Z,99268.88
2023-05-22T11:23:11.657Z,99263.59
2023-05-22T11:25:41.288Z,99269.16
2023-05-22T11:28:10.663Z,99262.03
2023-05-22T11:30:38.183Z,99255.44
2023-05-22T11:33:06.952Z,99258.38
2023-05-22T11:35:34.800Z,99262.75
2023-05-22T11:38:07.203Z,99258.22
2023-05-22T11:40:34.404Z,99258.31
2023-05-22T11:43:03.990Z,99258.53
2023-05-22T11:45:31.342Z,99252.00
2023-05-22T11:47:59.160Z,99247.63
2023-05-22T11:50:41.129Z,99252.97
2023-05-22T11:53:10.821Z,99252.34
2023-05-22T11:55:37.840Z,99250.69
2023-05-22T11:58:05.345Z,99251.78
2023-05-22T12:00:32.671Z,99251.84
2023-05-22T12:03:00.539Z,99253.47
2023-05-22T12:05:28.121Z,99253.75
2023-05-22T12:07:55.874Z,99245.91
2023-05-22T12:10:23.058Z,99244.41
2023-05-22T12:12:50.644Z,99251.78
2023-05-22T12:15:21.172Z,99243.53
2023-05-22T12:17:48.776Z,99242.91
2023-05-22T12:20:15.862Z,99243.09
2023-05-22T12:22:44.275Z,99247.38
2023-05-22T12:25:17.291Z,99245.84
2023-05-22T12:27:46.057Z,99244.88
2023-05-22T12:30:14.737Z,99234.66
2023-05-22T12:32:49.224Z,99236.88
2023-05-22T12:35:17.870Z,99223.53
2023-05-22T12:37:50.261Z,99227.69
2023-05-22T12:40:17.562Z,99218.28
2023-05-22T12:42:45.100Z,99219.47
2023-05-22T12:45:13.370Z,99214.09
2023-05-22T12:47:40.815Z,99212.28
2023-05-22T12:50:08.801Z,99215.63
2023-05-22T12:52:36.278Z,99209.47
2023-05-22T12:55:04.538Z,99208.19
2023-05-22T12:57:31.976Z,99209.81
2023-05-22T12:59:59.040Z,99210.72
2023-05-22T13:02:26.712Z,99202.19
2023-05-22T13:04:53.789Z,99207.16
2023-05-22T13:07:21.107Z,99198.94
2023-05-22T13:09:48.189Z,99193.19
2023-05-22T13:12:15.483Z,99197.47
2023-05-22T13:14:42.581Z,99198.03
2023-05-22T13:17:10.534Z,99202.25
2023-05-22T13:19:38.129Z,99192.84
2023-05-22T13:22:07.423Z,99185.16
2023-05-22T13:24:34.685Z,99193.09
2023-05-22T13:27:02.789Z,99189.72
2023-05-22T13:29:30.126Z,99189.47
2023-05-22T13:31:57.326Z,99184.47
2023-05-22T13:34:24.902Z,99181.13
2023-05-22T13:36:52.455Z,99177.84
2023-05-22T13:39:19.457Z,99179.59
2023-05-22T13:41:46.853Z,99175.25
2023-05-22T13:44:14.396Z,99168.16
2023-05-22T13:46:41.777Z,99175.53
2023-05-22T13:49:08.917Z,99171.31
2023-05-22T13:51:36.268Z,99178.41
2023-05-22T13:54:04.075Z,99167.44
2023-05-22T13:56:31.487Z,99163.22
2023-05-22T13:58:58.582Z,99161.22
2023-05-22T14:01:26.117Z,99157.09
2023-05-22T14:03:53.119Z,99157.19
2023-05-22T14:06:20.491Z,99157.53
2023-05-22T14:08:48.460Z,99156.66
2023-05-22T14:11:15.874Z,99160.63
2023-05-22T14:13:43.440Z,99158.59
2023-05-22T14:16:10.716Z,99153.56
2023-05-22T14:18:37.906Z,99161.75
2023-05-22T14:21:05.437Z,99154.03
2023-05-22T14:23:32.507Z,99145.97
2023-05-22T14:25:59.684Z,99149.63
2023-05-22T14:28:26.784Z,99139.56
2023-05-22T14:30:54.210Z,99147.84
2023-05-22T14:33:21.226Z,99147.09
2023-05-22T14:35:48.702Z,99132.81
2023-05-22T14:38:15.706Z,99137.63
2023-05-22T14:40:43.169Z,99145.03
2023-05-22T14:43:10.454Z,99146.31
2023-05-22T14:45:37.922Z,99133.47
2023-05-22T14:48:05.115Z,99139.09
2023-05-22T14:50:32.704Z,99134.28
2023-05-22T14:52:59.756Z,99134.50
2023-05-22T14:55:28.093Z,99137.53
2023-05-22T14:57:55.633Z,99136.69
2023-05-22T15:00:23.133Z,99138.41
2023-05-22T15:02:50.111Z,99138.66
2023-05-22T15:05:17.963Z,99128.56
2023-05-22T15:07:46.806Z,99132.94
2023-05-22T15:10:15.359Z,99132.28
2023-05-22T15:12:42.397Z,99129.22
2023-05-22T15:15:10.265Z,99126.97
2023-05-22T15:17:37.392Z,99128.34
2023-05-22T15:20:07.031Z,99120.69
2023-05-22T15:22:33.972Z,99124.28
2023-05-22T15:25:06.315Z,99127.66
2023-05-22T15:27:34.942Z,99120.78
2023-05-22T15:30:09.472Z,99122.94
2023-05-22T15:32:38.041Z,99119.44
2023-05-22T15:35:07.046Z,99118.59
2023-05-22T15:37:34.470Z,99111.88
2023-05-22T15:40:06.685Z,99111.97
2023-05-22T15:42:34.041Z,99116.84
2023-05-22T15:45:03.493Z,99108.75
2023-05-22T15:47:30.613Z,99111.59
2023-05-22T15:49:57.824Z,99112.19
2023-05-22T15:52:25.033Z,99109.38
2023-05-22T15:54:52.883Z,99103.75
2023-05-22T15:57:20.506Z,99098.47
2023-05-22T15:59:50.562Z,99106.72
2023-05-22T16:02:18.917Z,99098.84
2023-05-22T16:04:46.806Z,99100.19
2023-05-22T16:07:13.862Z,99097.78
2023-05-22T16:09:43.289Z,99096.28
2023-05-22T16:12:10.688Z,99092.81
2023-05-22T16:14:39.873Z,99100.19
2023-05-22T16:17:07.474Z,99098.25
2023-05-22T16:19:35.050Z,99103.78
2023-05-22T16:22:02.999Z,99105.78
2023-05-22T16:24:30.563Z,99103.19
2023-05-22T16:27:00.018Z,99096.25
2023-05-22T16:29:27.328Z,99093.91
2023-05-22T16:31:56.020Z,99104.72
2023-05-22T16:34:23.380Z,99112.03
2023-05-22T16:36:50.642Z,99097.84
2023-05-22T16:39:17.932Z,99100.13
2023-05-22T16:41:44.956Z,99105.84
2023-05-22T16:44:12.475Z,99101.09
2023-05-22T16:46:39.501Z,99106.78
2023-05-22T16:49:06.704Z,99099.97
2023-05-22T16:51:33.710Z,99105.44
2023-05-22T16:54:00.987Z,99108.16
2023-05-22T16:56:33.950Z,99106.94
2023-05-22T16:59:05.728Z,99101.28
2023-05-22T17:01:32.757Z,99104.88
2023-05-22T17:04:00.006Z,99105.47
2023-05-22T17:06:29.347Z,99108.66
2023-05-22T17:08:56.530Z,99114.41
2023-05-22T17:11:25.976Z,99113.09
2023-05-22T17:13:53.341Z,99118.03
2023-05-22T17:16:20.942Z,99109.75
2023-05-22T17:18:48.336Z,99113.56
2023-05-22T17:21:17.303Z,99116.47
2023-05-22T17:23:44.532Z,99115.03
2023-05-22T17:26:11.672Z,99123.88
2023-05-22T17:28:39.240Z,99123.88
2023-05-22T17:31:07.120Z,99122.63
2023-05-22T17:33:34.638Z,99123.59
2023-05-22T17:36:02.384Z,99121.69
2023-05-22T17:38:29.587Z,99127.44
2023-05-22T17:40:56.705Z,99127.31
2023-05-22T17:43:24.165Z,99118.97
2023-05-22T17:45:51.349Z,99119.91
2023-05-22T17:48:23.817Z,99119.78
2023-05-22T17:50:52.019Z,99120.09
2023-05-22T17:53:20.874Z,99120.53
2023-05-22T17:55:50.156Z,99115.72
2023-05-22T17:58:20.515Z,99113.00
2023-05-22T18:00:48.995Z,99119.09
2023-05-22T18:03:22.578Z,99120.06
2023-05-22T18:05:50.723Z,99121.31
2023-05-22T18:08:19.064Z,99115.53
2023-05-22T18:10:46.410Z,99115.03
2023-05-22T18:13:13.799Z,99114.72
2023-05-22T18:15:41.389Z,99112.41
2023-05-22T18:18:10.669Z,99108.66
2023-05-22T18:20:39.412Z,99110.25
2023-05-22T18:23:07.257Z,99105.59
2023-05-22T18:25:34.651Z,99106.97
2023-05-22T18:28:02.834Z,99110.66
2023-05-22T18:30:30.188Z,99114.66
2023-05-22T18:32:57.715Z,99113.50
2023-05-22T18:35:24.848Z,99117.16
2023-05-22T18:37:52.865Z,99114.34
2023-05-22T18:40:20.047Z,99112.38
2023-05-22T18:42:47.493Z,99121.13
2023-05-22T18:45:14.636Z,99116.13
2023-05-22T18:47:42.016Z,99113.81
2023-05-22T18:50:09.634Z,99112.34
2023-05-22T18:52:37.854Z,99110.25
2023-05-22T18:55:06.083Z,99116.41
2023-05-22T18:57:33.481Z,99104.06
2023-05-22T19:00:00.648Z,99109.41
2023-05-22T19:02:29.576Z,99110.16
2023-05-22T19:04:56.824Z,99105.09
2023-05-22T19:07:24.143Z,99105.81
2023-05-22T19:09:51.429Z,99108.97
2023-05-22T19:12:20.761Z,99109.53
2023-05-22T19:14:48.314Z,99108.94
2023-05-22T19:17:16.081Z,99107.72
2023-05-22T19:19:43.769Z,99116.91
2023-05-22T19:22:12.087Z,99117.34
2023-05-22T19:24:39.998Z,99128.91
2023-05-22T19:27:07.279Z,99121.41
2023-05-22T19:29:34.380Z,99121.63
2023-05-22T19:32:02.418Z,99124.25
2023-05-22T19:34:29.543Z,99128.69
2023-05-22T19:36:57.892Z,99121.72
2023-05-22T19:39:25.904Z,99128.06
2023-05-22T19:41:54.394Z,99130.88
2023-05-22T19:44:21.621Z,99128.75
2023-05-22T19:46:48.967Z,99125.03
2023-05-22T19:49:16.167Z,99118.03
2023-05-22T19:51:44.359Z,99117.13
2023-05-22T19:54:11.580Z,99125.38
2023-05-22T19:56:39.343Z,99126.53
2023-05-22T19:59:06.281Z,99125.50
2023-05-22T20:01:33.668Z,99126.78
2023-05-22T20:04:01.084Z,99127.16
2023-05-22T20:06:32.650Z,99124.31
2023-05-22T20:09:00.106Z,99121.94
2023-05-22T20:11:29.832Z,99118.81
2023-05-22T20:13:56.872Z,99119.25
2023-05-22T20:16:26.882Z,99125.34
2023-05-22T20:18:56.264Z,99118.97
2023-05-22T20:21:23.733Z,99124.16
2023-05-22T20:23:51.422Z,99124.53
2023-05-22T20:26:19.750Z,99120.25
2023-05-22T20:28:46.792Z,99125.75
2023-05-22T20:31:14.354Z,99120.13
2023-05-22T20:33:41.512Z,99122.63
2023-05-22T20:36:09.603Z,99121.06
2023-05-22T20:38:36.657Z,99121.44
2023-05-22T20:41:08.097Z,99118.78
2023-05-22T20:43:36.082Z,99120.75
2023-05-22T20:46:03.467Z,99117.78
2023-05-22T20:48:30.533Z,99117.06
2023-05-22T20:50:57.927Z,99112.78
2023-05-22T20:53:25.158Z,99118.56
2023-05-22T20:55:53.292Z,99115.59
2023-05-22T20:58:20.390Z,99112.41
2023-05-22T21:00:49.419Z,99111.38
2023-05-22T21:03:17.636Z,99117.91
2023-05-22T21:05:45.028Z,99109.63
2023-05-22T21:08:12.354Z,99115.34
2023-05-22T21:10:39.819Z,99114.88
2023-05-22T21:13:07.221Z,99125.72
2023-05-22T21:15:34.483Z,99110.59
2023-05-22T21:18:02.360Z,99110.66
2023-05-22T21:20:29.754Z,99112.88
2023-05-22T21:22:56.812Z,99113.19
2023-05-22T21:25:24.034Z,99117.31
2023-05-22T21:27:51.144Z,99114.13
2023-05-22T21:30:18.365Z,99109.31
2023-05-22T21:32:45.603Z,99115.34
2023-05-22T21:35:12.963Z,99111.56
2023-05-22T21:37:40.690Z,99104.56
2023-05-22T21:40:08.860Z,99100.25
2023-05-22T21:42:45.803Z,99098.63
2023-05-22T21:45:15.051Z,99103.53
2023-05-22T21:47:42.132Z,99104.63
2023-05-22T21:50:10.149Z,99098.19
2023-05-22T21:52:37.098Z,99100.91
2023-05-22T21:55:06.013Z,99104.19
2023-05-22T21:57:32.951Z,99104.50
2023-05-22T22:00:00.227Z,99096.16
2023-05-22T22:02:27.362Z,99094.28
2023-05-22T22:04:54.720Z,99095.13
2023-05-22T22:07:21.711Z,99092.47
2023-05-22T22:09:49.331Z,99098.41
2023-05-22T22:12:16.344Z,99093.56
2023-05-22T22:14:43.735Z,99097.91
2023-05-22T22:17:10.699Z,99103.84
2023-05-22T22:19:38.019Z,99104.97
2023-05-22T22:22:05.689Z,99110.38
2023-05-22T22:24:33.021Z,99105.78
2023-05-22T22:26:59.929Z,99098.50
2023-05-22T22:29:29.414Z,99097.94
2023-05-22T22:31:56.362Z,99099.06
2023-05-22T22:34:24.002Z,99094.75
2023-05-22T22:36:50.984Z,99099.06
2023-05-22T22:39:18.239Z,99092.59
2023-05-22T22:41:45.273Z,99093.16
2023-05-22T22:44:12.583Z,99093.16
2023-05-22T22:46:39.789Z,99094.22
2023-05-22T22:49:08.662Z,99092.63
2023-05-22T22:51:36.658Z,99103.97
2023-05-22T22:54:04.215Z,99094.25
2023-05-22T22:56:31.434Z,99092.63
2023-05-22T22:58:58.671Z,99094.53
2023-05-22T23:01:25.657Z,99097.50
2023-05-22T23:03:53.101Z,99096.41
2023-05-22T23:06:20.128Z,99098.03
2023-05-22T23:08:47.339Z,99096.41
2023-05-22T23:11:14.316Z,99097.75
2023-05-22T23:13:43.397Z,99092.38
2023-05-22T23:16:10.843Z,99095.88
2023-05-22T23:18:38.150Z,99092.63
2023-05-22T23:21:05.594Z,99089.41
2023-05-22T23:23:33.069Z,99090.47
2023-05-22T23:26:00.366Z,99082.94
2023-05-22T23:28:28.372Z,99080.19
2023-05-22T23:30:57.292Z,99082.34
2023-05-22T23:33:24.469Z,99079.66
2023-05-22T23:35:51.466Z,99080.72
2023-05-22T23:38:19.700Z,99073.16
2023-05-22T23:40:46.890Z,99078.53
2023-05-22T23:43:14.221Z,99072.06
2023-05-22T23:45:41.477Z,99081.78
2023-05-22T23:48:08.929Z,99073.66
2023-05-22T23:50:36.179Z,99080.41
2023-05-22T23:53:04.780Z,99070.41
2023-05-22T23:55:31.742Z,99070.94
2023-05-22T23:57:59.173Z,99072.53
